createdAt,value
2023-02-07T00:01:21.001Z,4.43
2023-02-07T00:05:03.131Z,4.60
2023-02-07T00:08:45.657Z,4.67
2023-02-07T00:12:27.682Z,4.70
2023-02-07T00:16:09.832Z,4.82
2023-02-07T00:19:51.960Z,5.43
2023-02-07T00:23:34.786Z,5.07
2023-02-07T00:27:17.426Z,6.18
2023-02-07T00:31:21.912Z,5.70
2023-02-07T00:35:04.196Z,5.80
2023-02-07T00:38:46.604Z,6.00
2023-02-07T00:42:28.568Z,5.28
2023-02-07T00:46:11.452Z,5.73
2023-02-07T00:49:53.504Z,5.55
2023-02-07T00:53:35.500Z,4.75
2023-02-07T00:57:17.527Z,5.40
2023-02-07T01:01:00.189Z,5.05
2023-02-07T01:04:42.271Z,5.25
2023-02-07T01:08:24.352Z,4.90
2023-02-07T01:12:06.555Z,4.67
2023-02-07T01:15:49.639Z,5.53
2023-02-07T01:19:31.700Z,4.90
2023-02-07T01:23:14.983Z,4.53
2023-02-07T01:26:56.980Z,4.93
2023-02-07T01:30:46.161Z,4.55
2023-02-07T01:34:28.936Z,5.20
2023-02-07T01:38:10.889Z,5.28
2023-02-07T01:41:52.936Z,4.70
2023-02-07T01:45:38.804Z,5.18
2023-02-07T01:49:34.517Z,5.57
2023-02-07T01:53:20.993Z,5.88
2023-02-07T01:57:06.552Z,5.43
2023-02-07T02:00:48.781Z,5.57
2023-02-07T02:04:30.910Z,5.75
2023-02-07T02:08:12.980Z,5.68
2023-02-07T02:12:29.178Z,4.80
2023-02-07T02:16:24.993Z,6.05
2023-02-07T02:20:12.882Z,6.03
2023-02-07T02:24:32.736Z,4.90
2023-02-07T02:28:33.917Z,5.27
2023-02-07T02:32:34.441Z,6.70
2023-02-07T02:36:26.125Z,6.22
2023-02-07T02:40:30.011Z,5.87
2023-02-07T02:44:22.955Z,5.70
2023-02-07T02:48:09.014Z,5.40
2023-02-07T02:51:54.251Z,5.80
2023-02-07T02:56:02.092Z,6.63
2023-02-07T02:59:58.095Z,5.97
2023-02-07T03:04:16.449Z,5.22
2023-02-07T03:08:10.149Z,5.70
2023-02-07T03:12:09.802Z,5.40
2023-02-07T03:16:20.404Z,5.88
2023-02-07T03:20:20.578Z,6.50
2023-02-07T03:24:10.705Z,7.15
2023-02-07T03:27:55.430Z,5.60
2023-02-07T03:31:42.975Z,6.43
2023-02-07T03:35:35.877Z,7.40
2023-02-07T03:39:18.540Z,6.90
2023-02-07T03:43:08.368Z,6.95
2023-02-07T03:46:51.872Z,6.73
2023-02-07T03:50:33.956Z,7.03
2023-02-07T03:54:16.158Z,7.30
2023-02-07T03:57:58.192Z,7.13
2023-02-07T04:01:42.164Z,7.07
2023-02-07T04:05:24.526Z,6.25
2023-02-07T04:09:06.736Z,5.23
2023-02-07T04:12:48.754Z,6.47
2023-02-07T04:16:31.001Z,6.70
2023-02-07T04:20:13.576Z,6.72
2023-02-07T04:23:56.833Z,6.03
2023-02-07T04:27:38.934Z,5.28
2023-02-07T04:31:20.990Z,6.45
2023-02-07T04:35:03.071Z,6.90
2023-02-07T04:38:45.146Z,6.95
2023-02-07T04:42:27.137Z,7.53
2023-02-07T04:46:10.001Z,7.13
2023-02-07T04:49:52.139Z,7.47
2023-02-07T04:53:34.729Z,6.78
2023-02-07T04:57:16.942Z,7.50
2023-02-07T05:00:59.073Z,6.83
2023-02-07T05:04:41.191Z,6.50
2023-02-07T05:08:25.285Z,7.22
2023-02-07T05:12:11.005Z,5.93
2023-02-07T05:15:53.172Z,6.18
2023-02-07T05:19:35.238Z,7.43
2023-02-07T05:23:17.420Z,6.47
2023-02-07T05:26:59.486Z,6.60
2023-02-07T05:30:41.774Z,6.70
2023-02-07T05:34:24.330Z,7.05
2023-02-07T05:38:09.744Z,6.67
2023-02-07T05:41:51.975Z,6.78
2023-02-07T05:45:35.047Z,8.05
2023-02-07T05:49:19.615Z,6.83
2023-02-07T05:53:03.164Z,6.95
2023-02-07T05:56:45.276Z,7.22
2023-02-07T06:00:27.603Z,7.47
2023-02-07T06:04:09.595Z,6.95
2023-02-07T06:07:52.396Z,6.50
2023-02-07T06:11:34.409Z,6.13
2023-02-07T06:15:16.556Z,6.47
2023-02-07T06:18:58.614Z,7.07
2023-02-07T06:22:40.717Z,5.82
2023-02-07T06:26:22.748Z,7.00
2023-02-07T06:30:05.078Z,6.88
2023-02-07T06:33:47.045Z,6.07
2023-02-07T06:37:29.394Z,7.00
2023-02-07T06:41:11.416Z,6.45
2023-02-07T06:44:53.416Z,6.38
2023-02-07T06:48:35.411Z,6.75
2023-02-07T06:52:18.727Z,6.63
2023-02-07T06:56:00.749Z,7.35
2023-02-07T06:59:43.318Z,7.22
2023-02-07T07:03:28.912Z,7.20
2023-02-07T07:07:10.963Z,7.13
2023-02-07T07:10:53.892Z,7.10
2023-02-07T07:14:36.188Z,6.90
2023-02-07T07:18:18.263Z,6.80
2023-02-07T07:22:00.846Z,6.97
2023-02-07T07:25:42.801Z,7.60
2023-02-07T07:29:25.542Z,6.70
2023-02-07T07:33:07.730Z,7.00
2023-02-07T07:36:49.775Z,6.60
2023-02-07T07:40:31.841Z,6.93
2023-02-07T07:44:13.855Z,7.00
2023-02-07T07:47:55.890Z,7.10
2023-02-07T07:51:40.613Z,7.17
2023-02-07T07:59:23.602Z,6.75
2023-02-07T08:07:26.369Z,6.70
2023-02-07T08:15:14.052Z,6.45
2023-02-07T08:19:24.636Z,6.77
2023-02-07T08:23:06.660Z,6.32
2023-02-07T08:31:04.125Z,6.87
2023-02-07T08:35:11.039Z,6.20
2023-02-07T08:38:52.996Z,6.25
2023-02-07T08:42:57.639Z,6.15
2023-02-07T08:46:39.745Z,6.03
2023-02-07T08:54:21.466Z,6.32
2023-02-07T08:58:03.535Z,6.43
2023-02-07T09:02:05.895Z,5.80
2023-02-07T09:05:48.270Z,5.05
2023-02-07T09:13:38.921Z,5.85
2023-02-07T09:17:21.024Z,6.05
2023-02-07T09:21:23.730Z,6.13
2023-02-07T09:25:06.268Z,6.37
2023-02-07T09:29:34.636Z,6.57
2023-02-07T09:33:38.379Z,5.70
2023-02-07T09:37:20.349Z,6.40
2023-02-07T09:45:09.976Z,5.57
2023-02-07T09:58:23.858Z,6.03
2023-02-07T10:02:21.783Z,6.03
2023-02-07T10:06:22.353Z,5.83
2023-02-07T10:10:04.617Z,7.35
2023-02-07T10:14:16.956Z,8.00
2023-02-07T10:18:42.804Z,7.87
2023-02-07T10:31:39.261Z,7.50
2023-02-07T10:40:35.815Z,7.45
2023-02-07T10:58:43.020Z,7.05
2023-02-07T11:07:47.493Z,7.38
2023-02-07T11:21:08.671Z,10.65
2023-02-07T11:25:36.998Z,11.90
2023-02-07T11:43:48.302Z,10.07
2023-02-07T13:25:06.227Z,11.95
2023-02-07T17:00:35.942Z,11.07
2023-02-07T17:04:42.647Z,11.13
2023-02-07T17:20:48.431Z,10.80
2023-02-07T17:24:31.643Z,9.35
2023-02-07T17:28:17.774Z,10.02
2023-02-07T17:31:59.750Z,9.30
2023-02-07T17:35:41.750Z,10.63
2023-02-07T17:39:23.730Z,9.50
2023-02-07T17:43:06.919Z,15.02
2023-02-07T17:46:49.152Z,20.63
2023-02-07T17:50:35.509Z,18.02
2023-02-07T17:54:17.525Z,11.43
2023-02-07T18:07:34.283Z,12.05
2023-02-07T18:11:16.723Z,13.00
2023-02-07T18:14:58.705Z,12.55
2023-02-07T18:18:43.356Z,12.93
2023-02-07T18:22:25.467Z,17.10
2023-02-07T18:26:07.565Z,14.70
2023-02-07T18:29:51.134Z,15.27
2023-02-07T18:33:33.154Z,17.55
2023-02-07T18:37:17.505Z,18.00
2023-02-07T18:40:59.511Z,15.35
2023-02-07T18:44:41.615Z,14.60
2023-02-07T18:48:26.230Z,14.80
2023-02-07T18:52:08.377Z,14.25
2023-02-07T18:55:50.418Z,15.07
2023-02-07T18:59:34.258Z,13.82
2023-02-07T19:03:16.551Z,12.83
2023-02-07T19:06:59.890Z,12.82
2023-02-07T19:10:44.290Z,12.60
2023-02-07T19:14:31.170Z,13.87
2023-02-07T19:18:13.255Z,14.55
2023-02-07T19:21:56.520Z,14.30
2023-02-07T19:25:46.374Z,15.37
2023-02-07T19:29:30.147Z,14.02
2023-02-07T19:33:12.257Z,15.85
2023-02-07T19:36:58.464Z,14.40
2023-02-07T19:40:40.832Z,14.23
2023-02-07T19:44:23.201Z,14.55
2023-02-07T19:48:05.615Z,12.93
2023-02-07T19:51:48.508Z,13.13
2023-02-07T19:55:30.625Z,12.45
2023-02-07T19:59:12.775Z,11.73
2023-02-07T20:02:54.749Z,14.40
2023-02-07T20:06:36.947Z,12.45
2023-02-07T20:10:19.386Z,14.48
2023-02-07T20:14:06.937Z,15.27
2023-02-07T20:17:49.060Z,16.90
2023-02-07T20:21:33.829Z,13.98
2023-02-07T20:25:15.882Z,12.90
2023-02-07T20:29:02.203Z,13.67
2023-02-07T20:32:44.277Z,13.35
2023-02-07T20:36:29.385Z,14.27
2023-02-07T20:40:11.624Z,15.33
2023-02-07T20:43:55.317Z,13.98
2023-02-07T20:47:38.629Z,12.82
2023-02-07T20:51:20.688Z,13.35
2023-02-07T20:55:06.093Z,13.50
2023-02-07T20:58:48.172Z,12.73
2023-02-07T21:02:30.289Z,11.95
2023-02-07T21:06:12.903Z,10.33
2023-02-07T21:09:55.194Z,10.65
2023-02-07T21:13:38.161Z,11.98
2023-02-07T21:17:20.141Z,11.23
2023-02-07T21:21:06.995Z,10.73
2023-02-07T21:24:49.400Z,10.57
2023-02-07T21:28:31.676Z,11.95
2023-02-07T21:32:13.673Z,11.30
2023-02-07T21:36:16.197Z,12.88
2023-02-07T21:39:58.222Z,12.68
2023-02-07T21:43:40.864Z,12.10
2023-02-07T21:47:22.881Z,11.98
2023-02-07T21:51:06.847Z,13.05
2023-02-07T21:54:48.952Z,12.67
2023-02-07T21:58:31.244Z,13.57
2023-02-07T22:02:14.511Z,12.38
2023-02-07T22:05:56.624Z,12.15
2023-02-07T22:09:38.712Z,12.97
2023-02-07T22:13:20.730Z,12.23
2023-02-07T22:17:04.915Z,10.43
2023-02-07T22:20:46.968Z,12.60
2023-02-07T22:24:31.863Z,10.35
2023-02-07T22:28:16.383Z,11.43
2023-02-07T22:31:58.636Z,10.57
2023-02-07T22:35:42.353Z,9.32
2023-02-07T22:39:24.313Z,10.48
2023-02-07T22:43:14.986Z,11.07
2023-02-07T22:46:57.124Z,10.73
2023-02-07T22:50:39.353Z,11.80
2023-02-07T22:54:21.481Z,11.88
2023-02-07T22:58:03.532Z,11.67
2023-02-07T23:01:45.574Z,10.70
2023-02-07T23:05:27.732Z,10.75
2023-02-07T23:09:10.556Z,10.63
2023-02-07T23:12:53.153Z,10.38
2023-02-07T23:16:36.185Z,10.30
2023-02-07T23:20:18.351Z,10.35
2023-02-07T23:24:01.597Z,9.77
2023-02-07T23:27:44.898Z,10.90
2023-02-07T23:31:27.278Z,10.82
2023-02-07T23:35:09.384Z,10.60
2023-02-07T23:38:51.831Z,11.55
2023-02-07T23:42:34.451Z,11.02
2023-02-07T23:46:17.733Z,10.57
2023-02-07T23:49:59.807Z,10.35
2023-02-07T23:53:43.297Z,10.93
2023-02-07T23:57:25.641Z,9.85
